DW6120 Weather Reports


Display with metric or nautical units.
time (UTC)temp
F
wind
direction
speed
MPH
gust
MPH
rain 1hr
in
rain 24hr
in
rain mn
in
humidity
%
barometer
mb
20211208230122 46 96 13.0 32.0 0.00 0.00 0.00 55 1005.7
20211208224821 45 141 6.0 26.0 0.00 0.00 0.00 56 1005.9
20211208223133 46 126 17.0 27.0 0.00 0.00 0.00 55 1005.9
20211208221634 46 133 9.0 26.0 0.00 0.00 0.00 53 1006.1
20211208220134 47 178 7.0 23.0 0.00 0.00 0.00 49 1005.9
20211208214612 47 109 8.0 23.0 0.00 0.00 0.00 54 1006.1
20211208213150 46 102 9.0 27.0 0.00 0.00 0.00 55 1006.3
20211208211644 46 106 15.0 24.0 0.00 0.00 0.00 55 1006.4
20211208210103 46 157 16.0 26.0 0.00 0.00 0.00 55 1007.2
20211208204545 46 101 11.0 30.0 0.00 0.00 0.00 57 1007.3
20211208203259 45 117 12.0 25.0 0.00 0.00 0.00 59 1007.2
20211208201539 45 96 9.0 27.0 0.00 0.00 0.00 59 1007.5
20211208200059 46 132 11.0 18.0 0.00 0.00 0.00 58 1007.7
20211208194557 46 124 8.0 21.0 0.00 0.00 0.00 56 1008.1
20211208193044 46 188 9.0 24.0 0.00 0.00 0.00 54 1008.0
20211208191542 46 254 9.0 27.0 0.00 0.00 0.00 53 1008.5
20211208190053 47 125 11.0 31.0 0.00 0.00 0.00 52 1008.6
20211208184559 46 198 7.0 22.0 0.00 0.00 0.00 53 1009.1
20211208183048 47 205 8.0 26.0 0.00 0.00 0.00 48 1009.5
20211208181557 47 211 10.0 22.0 0.00 0.00 0.00 46 1009.8
20211208180031 46 195 7.0 21.0 0.00 0.00 0.00 46 1010.4
20211208174521 47 196 3.0 18.0 0.00 0.00 0.00 46 1010.9
20211208173055 45 207 12.0 33.0 0.00 0.00 0.00 48 1011.0
20211208171529 41 193 8.0 19.0 0.00 0.00 0.00 56 1011.1
20211208170039 39 329 5.0 10.0 0.00 0.00 0.00 56 1011.2
20211208164553 39 89 2.0 13.0 0.00 0.00 0.00 56 1011.0
20211208163017 40 89 3.0 11.0 0.00 0.00 0.00 54 1011.2
20211208161527 41 176 4.0 14.0 0.00 0.00 0.00 54 1011.5
20211208160033 38 148 9.0 17.0 0.00 0.00 0.00 64 1012.1
20211208154540 33 93 6.0 9.0 0.00 0.00 0.00 65 1012.6
20211208153007 33 104 1.0 6.0 0.00 0.00 0.00 62 1012.7
20211208151512 33 114 1.0 8.0 0.00 0.00 0.00 63 1013.1
20211208150014 32 78 2.0 5.0 0.00 0.00 0.00 65 1013.4
20211208144502 32 71 0.0 9.0 0.00 0.00 0.00 64 1013.0
20211208143002 32 152 2.0 4.0 0.00 0.00 0.00 63 1013.2
20211208141645 33 225 1.0 3.0 0.00 0.00 0.00 62 1013.3
20211208140226 32 126 2.0 8.0 0.00 0.00 0.00 64 1013.3
20211208134649 32 186 1.0 6.0 0.00 0.00 0.00 63 1013.7
20211208133127 34 92 2.0 8.0 0.00 0.00 0.00 63 1013.5
20211208131610 34 94 5.0 7.0 0.00 0.00 0.00 63 1013.3
20211208130109 34 79 4.0 11.0 0.00 0.00 0.00 60 1013.1
20211208124702 34 94 7.0 10.0 0.00 0.00 0.00 60 1013.2
20211208123055 33 82 6.0 8.0 0.00 0.00 0.00 62 1013.3
20211208121621 34 96 6.0 8.0 0.00 0.00 0.00 62 1013.6
20211208120104 34 101 4.0 7.0 0.00 0.00 0.00 61 1014.0
20211208114548 34 88 4.0 8.0 0.00 0.00 0.00 62 1014.2
20211208113053 34 109 6.0 9.0 0.00 0.00 0.00 59 1014.4
20211208111616 34 93 6.0 9.0 0.00 0.00 0.00 61 1014.4
20211208110046 34 94 7.0 10.0 0.00 0.00 0.00 61 1014.6
20211208104539 34 97 6.0 8.0 0.00 0.00 0.00 63 1014.7
20211208103102 34 90 3.0 8.0 0.00 0.00 0.00 62 1015.1
20211208101556 34 101 5.0 8.0 0.00 0.00 0.00 61 1015.0
20211208100102 34 96 5.0 9.0 0.00 0.00 0.00 63 1014.9
20211208094537 34 98 4.0 8.0 0.00 0.00 0.00 66 1015.2
20211208093040 34 116 2.0 4.0 0.00 0.00 0.00 66 1015.5
20211208091643 35 128 1.0 4.0 0.00 0.00 0.00 62 1015.6
20211208090053 35 86 3.0 7.0 0.00 0.00 0.00 63 1015.5
20211208084528 35 78 3.0 5.0 0.00 0.00 0.00 63 1015.7
20211208083034 36 86 4.0 9.0 0.00 0.00 0.00 62 1015.9
20211208081527 36 97 7.0 9.0 0.00 0.00 0.00 63 1015.9
20211208080035 35 110 3.0 5.0 0.00 0.00 0.00 65 1016.1
20211208074534 36 57 3.0 9.0 0.00 0.00 0.00 62 1016.2
20211208073118 34 92 5.0 8.0 0.00 0.00 0.00 66 1016.3
20211208071527 35 150 1.0 3.0 0.00 0.00 0.00 68 1016.6
20211208070016 36 159 2.0 7.0 0.00 0.00 0.00 64 1016.6
20211208064541 36 80 6.0 9.0 0.00 0.00 0.00 66 1016.5
20211208063014 35 105 3.0 6.0 0.00 0.00 0.00 67 1016.8
20211208061515 36 111 3.0 7.0 0.00 0.00 0.00 67 1017.0
20211208060033 36 75 3.0 8.0 0.00 0.00 0.00 66 1017.1
20211208054525 37 99 3.0 8.0 0.00 0.00 0.00 64 1017.2
20211208053012 37 111 5.0 9.0 0.00 0.00 0.00 65 1017.1
20211208051520 37 92 7.0 11.0 0.00 0.00 0.00 65 1017.1
20211208050026 37 89 8.0 11.0 0.00 0.00 0.00 66 1017.1
20211208044523 36 105 6.0 10.0 0.00 0.00 0.00 67 1017.1
20211208043014 36 85 3.0 8.0 0.00 0.00 0.00 66 1017.2
20211208041511 37 80 4.0 8.0 0.00 0.00 0.00 66 1017.6
20211208040025 36 99 5.0 9.0 0.00 0.00 0.00 67 1017.5
20211208034509 36 96 6.0 9.0 0.00 0.00 0.00 66 1017.3
20211208033026 36 93 5.0 10.0 0.00 0.00 0.00 66 1017.3
20211208031509 37 90 8.0 10.0 0.00 0.00 0.00 65 1017.2
20211208030034 36 103 4.0 9.0 0.00 0.00 0.00 66 1017.2
20211208024507 36 76 5.0 10.0 0.00 0.00 0.00 65 1017.1
20211208023016 37 109 8.0 10.0 0.00 0.00 0.00 64 1017.0
20211208021504 36 93 9.0 11.0 0.00 0.00 0.00 65 1016.8
20211208020003 36 98 9.0 11.0 0.00 0.00 0.00 65 1016.7
20211208014503 36 88 8.0 11.0 0.00 0.00 0.00 65 1016.6
20211208013109 36 101 7.0 10.0 0.00 0.00 0.00 65 1016.2
20211208011502 36 95 7.0 10.0 0.00 0.00 0.00 65 1016.0
20211208010002 36 101 8.0 11.0 0.00 0.00 0.00 65 1016.1
20211208004710 36 93 8.0 10.0 0.00 0.00 0.00 64 1016.1
20211208003139 37 98 6.0 9.0 0.00 0.00 0.00 63 1016.0
20211208000211 41 53 1.0 6.0 0.00 0.00 0.00 55 1015.5
20211207234725 43 350 2.0 6.0 0.00 0.00 0.00 53 1015.1
20211207233124 44 325 4.0 8.0 0.00 0.00 0.00 52 1015.2